SWA3828 KLAX-KLAS
Flight info
| Callsign | SWA3828 |
|---|---|
| Flight time | N/A |
| Altitude | 29000 |
| Route | ORCKA5 MISEN RNDRZ4 |
| Aircraft | B737/M-SDE2E3FGHIRWXY/LB1 |
Departure
| Time | 2026-05-05 16:39 |
|---|---|
| Airport | Los Angeles International Airport (KLAX) |
Arrival
| Time | N/A |
|---|---|
| Airport | Harry Reid International Airport (KLAS) |
| Time | Latitude | Longitude | Altitude | Speed | Heading |
|---|---|---|---|---|---|
| 2026-05-05 16:18 | 33.94765 | -118.40063 | 92 ft | 0 kts | 243° |
| 2026-05-05 16:31 | 33.94765 | -118.40062 | 92 ft | 2 kts | 242° |
| 2026-05-05 16:31 | 33.94774 | -118.40035 | 91 ft | 4 kts | 266° |
| 2026-05-05 16:31 | 33.94771 | -118.40012 | 90 ft | 4 kts | 342° |
| 2026-05-05 16:32 | 33.94761 | -118.40011 | 91 ft | 1 kts | 5° |
| 2026-05-05 16:32 | 33.94760 | -118.40011 | 92 ft | 0 kts | 5° |
| 2026-05-05 16:35 | 33.94785 | -118.40007 | 92 ft | 9 kts | 7° |
| 2026-05-05 16:35 | 33.94841 | -118.40038 | 93 ft | 10 kts | 292° |
| 2026-05-05 16:35 | 33.94891 | -118.40079 | 93 ft | 9 kts | 6° |
| 2026-05-05 16:35 | 33.94923 | -118.40017 | 92 ft | 9 kts | 83° |
| 2026-05-05 16:36 | 33.94934 | -118.39943 | 92 ft | 9 kts | 69° |
| 2026-05-05 16:36 | 33.94949 | -118.39924 | 94 ft | 2 kts | 25° |
| 2026-05-05 16:36 | 33.94953 | -118.39922 | 93 ft | 0 kts | 25° |
| 2026-05-05 16:38 | 33.94955 | -118.39920 | 93 ft | 2 kts | 25° |
| 2026-05-05 16:38 | 33.94997 | -118.39911 | 92 ft | 9 kts | 358° |
| 2026-05-05 16:38 | 33.95043 | -118.39955 | 94 ft | 10 kts | 266° |
| 2026-05-05 16:38 | 33.95021 | -118.40164 | 98 ft | 56 kts | 263° |
| 2026-05-05 16:39 | 33.94942 | -118.40930 | 97 ft | 125 kts | 263° |
| 2026-05-05 16:39 | 33.94813 | -118.42151 | 339 ft | 158 kts | 262° |
| 2026-05-05 16:39 | 33.94664 | -118.43521 | 1015 ft | 172 kts | 262° |
| 2026-05-05 16:39 | 33.94503 | -118.44988 | 1808 ft | 177 kts | 263° |
| 2026-05-05 16:40 | 33.94335 | -118.46497 | 2413 ft | 192 kts | 263° |
| 2026-05-05 16:40 | 33.94132 | -118.48211 | 2649 ft | 221 kts | 262° |
| 2026-05-05 16:40 | 33.93905 | -118.50154 | 2977 ft | 247 kts | 263° |
| 2026-05-05 16:40 | 33.93684 | -118.52235 | 3715 ft | 254 kts | 263° |
| 2026-05-05 16:41 | 33.93465 | -118.54329 | 4530 ft | 254 kts | 264° |
| 2026-05-05 16:41 | 33.93243 | -118.56431 | 4949 ft | 254 kts | 264° |
| 2026-05-05 16:41 | 33.93013 | -118.58565 | 4978 ft | 260 kts | 264° |
| 2026-05-05 16:41 | 33.92510 | -118.60626 | 5071 ft | 267 kts | 236° |
| 2026-05-05 16:42 | 33.91044 | -118.62060 | 5809 ft | 273 kts | 205° |
| 2026-05-05 16:42 | 33.89216 | -118.62602 | 6719 ft | 280 kts | 183° |
| 2026-05-05 16:42 | 33.87278 | -118.62187 | 7694 ft | 283 kts | 157° |
| 2026-05-05 16:42 | 33.85703 | -118.60820 | 8650 ft | 287 kts | 130° |
| 2026-05-05 16:43 | 33.84768 | -118.58692 | 9565 ft | 294 kts | 103° |
| 2026-05-05 16:43 | 33.84720 | -118.56230 | 10367 ft | 300 kts | 76° |
| 2026-05-05 16:43 | 33.85592 | -118.53873 | 10699 ft | 323 kts | 53° |
| 2026-05-05 16:43 | 33.87083 | -118.51757 | 11173 ft | 339 kts | 45° |
| 2026-05-05 16:44 | 33.88710 | -118.49669 | 11983 ft | 344 kts | 45° |
| 2026-05-05 16:44 | 33.90328 | -118.47522 | 12660 ft | 347 kts | 46° |
| 2026-05-05 16:44 | 33.91922 | -118.45330 | 12985 ft | 349 kts | 47° |
| 2026-05-05 16:44 | 33.93484 | -118.43068 | 12988 ft | 352 kts | 51° |
| 2026-05-05 16:45 | 33.94888 | -118.40657 | 13000 ft | 352 kts | 54° |
| 2026-05-05 16:45 | 33.96238 | -118.38195 | 13023 ft | 354 kts | 54° |
| 2026-05-05 16:45 | 33.97606 | -118.35701 | 13044 ft | 360 kts | 56° |
| 2026-05-05 16:45 | 33.99016 | -118.33233 | 12989 ft | 353 kts | 53° |
| 2026-05-05 16:46 | 34.00396 | -118.30809 | 12984 ft | 350 kts | 54° |
| 2026-05-05 16:46 | 34.01761 | -118.28371 | 13004 ft | 353 kts | 54° |
| 2026-05-05 16:46 | 34.03138 | -118.25927 | 12983 ft | 352 kts | 54° |
| 2026-05-05 16:46 | 34.04511 | -118.23499 | 12989 ft | 350 kts | 54° |
| 2026-05-05 16:47 | 34.05890 | -118.21065 | 13084 ft | 357 kts | 53° |
| 2026-05-05 16:47 | 34.07300 | -118.18579 | 14035 ft | 359 kts | 54° |
| 2026-05-05 16:47 | 34.08708 | -118.16086 | 15005 ft | 360 kts | 53° |
| 2026-05-05 16:47 | 34.10120 | -118.13587 | 15896 ft | 363 kts | 53° |
| 2026-05-05 16:48 | 34.11554 | -118.11047 | 16784 ft | 369 kts | 54° |
| 2026-05-05 16:48 | 34.12990 | -118.08499 | 17914 ft | 369 kts | 54° |
| 2026-05-05 16:48 | 34.14447 | -118.05926 | 18750 ft | 374 kts | 55° |
| 2026-05-05 16:48 | 34.15926 | -118.03299 | 19387 ft | 382 kts | 54° |
| 2026-05-05 16:49 | 34.17424 | -118.00640 | 20168 ft | 384 kts | 55° |
| 2026-05-05 16:49 | 34.18930 | -117.97965 | 20957 ft | 387 kts | 53° |
| 2026-05-05 16:49 | 34.20449 | -117.95262 | 21653 ft | 392 kts | 54° |
| 2026-05-05 16:49 | 34.21985 | -117.92527 | 22342 ft | 396 kts | 54° |
| 2026-05-05 16:50 | 34.23537 | -117.89760 | 23083 ft | 399 kts | 55° |
| 2026-05-05 16:50 | 34.25102 | -117.86968 | 23773 ft | 402 kts | 54° |
| 2026-05-05 16:50 | 34.26680 | -117.84154 | 24334 ft | 407 kts | 55° |
| 2026-05-05 16:50 | 34.28272 | -117.81311 | 24889 ft | 410 kts | 54° |
| 2026-05-05 16:51 | 34.29874 | -117.78446 | 25485 ft | 412 kts | 54° |
| 2026-05-05 16:51 | 34.31478 | -117.75577 | 26267 ft | 410 kts | 55° |
| 2026-05-05 16:51 | 34.33068 | -117.72731 | 27059 ft | 407 kts | 56° |
| 2026-05-05 16:51 | 34.34652 | -117.69892 | 27780 ft | 407 kts | 54° |
| 2026-05-05 16:52 | 34.36255 | -117.67079 | 28478 ft | 407 kts | 54° |
| 2026-05-05 16:52 | 34.37909 | -117.64293 | 28989 ft | 408 kts | 52° |
| 2026-05-05 16:52 | 34.41252 | -117.58754 | 28953 ft | 405 kts | 53° |
| 2026-05-05 16:53 | 34.44570 | -117.53233 | 28954 ft | 406 kts | 53° |
| 2026-05-05 16:53 | 34.47830 | -117.47773 | 29002 ft | 394 kts | 52° |
| 2026-05-05 16:54 | 34.51078 | -117.42313 | 29031 ft | 406 kts | 53° |
| 2026-05-05 16:54 | 34.54369 | -117.36765 | 29012 ft | 403 kts | 53° |
| 2026-05-05 16:55 | 34.57633 | -117.31259 | 29020 ft | 401 kts | 53° |
| 2026-05-05 16:55 | 34.60879 | -117.25773 | 29013 ft | 400 kts | 53° |
| 2026-05-05 16:56 | 34.64129 | -117.20275 | 28999 ft | 401 kts | 53° |
| 2026-05-05 16:56 | 34.67387 | -117.14750 | 28914 ft | 404 kts | 53° |
| 2026-05-05 16:57 | 34.70676 | -117.09167 | 28942 ft | 408 kts | 53° |
| 2026-05-05 16:57 | 34.73991 | -117.03529 | 28946 ft | 411 kts | 53° |
| 2026-05-05 16:58 | 34.77290 | -116.97909 | 28946 ft | 411 kts | 54° |
| 2026-05-05 16:58 | 34.80626 | -116.92218 | 28965 ft | 409 kts | 54° |
| 2026-05-05 16:59 | 34.83890 | -116.86637 | 28977 ft | 403 kts | 53° |
| 2026-05-05 16:59 | 34.87135 | -116.81087 | 28979 ft | 404 kts | 54° |
| 2026-05-05 17:00 | 34.90403 | -116.75483 | 28976 ft | 406 kts | 54° |
| 2026-05-05 17:00 | 34.93656 | -116.69855 | 28968 ft | 407 kts | 54° |
| 2026-05-05 17:01 | 34.96820 | -116.64231 | 28934 ft | 391 kts | 55° |
| 2026-05-05 17:01 | 34.98327 | -116.61544 | 28925 ft | 375 kts | 54° |
| 2026-05-05 17:01 | 34.99770 | -116.58973 | 28922 ft | 360 kts | 54° |
| 2026-05-05 17:02 | 35.01155 | -116.56510 | 28911 ft | 345 kts | 54° |
| 2026-05-05 17:02 | 35.02487 | -116.54141 | 28906 ft | 331 kts | 55° |
| 2026-05-05 17:02 | 35.03760 | -116.51876 | 28902 ft | 317 kts | 55° |
| 2026-05-05 17:02 | 35.04978 | -116.49709 | 28899 ft | 303 kts | 55° |
| 2026-05-05 17:03 | 35.06149 | -116.47625 | 28903 ft | 293 kts | 55° |
| 2026-05-05 17:03 | 35.07311 | -116.45557 | 28913 ft | 303 kts | 55° |
| 2026-05-05 17:03 | 35.08532 | -116.43381 | 28897 ft | 315 kts | 55° |
| 2026-05-05 17:03 | 35.09787 | -116.41140 | 28623 ft | 326 kts | 55° |
| 2026-05-05 17:04 | 35.11194 | -116.38905 | 28738 ft | 338 kts | 47° |
| 2026-05-05 17:04 | 35.12841 | -116.36770 | 28832 ft | 353 kts | 45° |
| 2026-05-05 17:04 | 35.14607 | -116.34588 | 28854 ft | 369 kts | 44° |
| 2026-05-05 17:04 | 35.16441 | -116.32309 | 28863 ft | 384 kts | 45° |
| 2026-05-05 17:05 | 35.18330 | -116.29917 | 28872 ft | 398 kts | 46° |
| 2026-05-05 17:05 | 35.20254 | -116.27444 | 28847 ft | 404 kts | 46° |
| 2026-05-05 17:05 | 35.24070 | -116.22447 | 28829 ft | 400 kts | 48° |
| 2026-05-05 17:06 | 35.27750 | -116.17371 | 28831 ft | 398 kts | 48° |
| 2026-05-05 17:06 | 35.31429 | -116.12307 | 28830 ft | 399 kts | 48° |
| 2026-05-05 17:07 | 35.35132 | -116.07227 | 28834 ft | 401 kts | 48° |